Haskins, Ohio
Current Conditions -  °F | °C
As of 3:52 AM on Saturday 22 Nov 2014 (Local Time) from KTOL Reporting Station
Overcast Overcast  
Wind Chill: 14°   Ceiling: 3500
Heat Index: 23°   Visibility: 10mi
Dew Point: 13°   Wind: 8mph
Humidity: 65%   Direction: 180°S
Pressure: 30.23"   Gusts: NA
Location:  41.46°N, 83.71°W
Report Text: KTOL 220852Z 18007KT 10SM OVC035 M05/M11 A3023 RMK AO2 SLP247 T10501106 56029
Loading
Personal Weather Stations






























Interactive Weather Map New forecast layout! Learn more

10-Day Weather Forecast

Advertisements
Track Severe Weather on mobile